sensor_id;sensor_type;location;lat;lon;timestamp;pressure;altitude;pressure_sealevel;temperature;humidity
21129;BME280;10722;51.910;8.352;2022-09-09T00:02:22;100128.84;;;15.43;99.40
21129;BME280;10722;51.910;8.352;2022-09-09T00:05:24;100136.66;;;15.42;99.34
21129;BME280;10722;51.910;8.352;2022-09-09T00:08:22;100127.13;;;15.41;99.56
21129;BME280;10722;51.910;8.352;2022-09-09T00:11:12;100132.31;;;15.44;99.60
21129;BME280;10722;51.910;8.352;2022-09-09T00:14:00;100129.63;;;15.50;99.27
21129;BME280;10722;51.910;8.352;2022-09-09T00:16:53;100129.66;;;15.49;99.49
21129;BME280;10722;51.910;8.352;2022-09-09T00:20:14;100132.25;;;15.45;99.73
21129;BME280;10722;51.910;8.352;2022-09-09T00:29:13;100141.78;;;15.48;100.00
21129;BME280;10722;51.910;8.352;2022-09-09T00:32:09;100150.66;;;15.33;100.00
21129;BME280;10722;51.910;8.352;2022-09-09T00:35:00;100147.25;;;15.30;100.00
21129;BME280;10722;51.910;8.352;2022-09-09T00:37:48;100142.81;;;15.38;100.00
21129;BME280;10722;51.910;8.352;2022-09-09T00:40:40;100139.22;;;15.45;100.00
21129;BME280;10722;51.910;8.352;2022-09-09T00:43:31;100135.66;;;15.55;100.00
21129;BME280;10722;51.910;8.352;2022-09-09T00:46:33;100137.31;;;15.61;100.00
21129;BME280;10722;51.910;8.352;2022-09-09T00:49:40;100140.78;;;15.61;100.00
21129;BME280;10722;51.910;8.352;2022-09-09T00:56:09;100119.91;;;15.63;100.00
21129;BME280;10722;51.910;8.352;2022-09-09T00:59:10;100132.06;;;15.65;100.00
21129;BME280;10722;51.910;8.352;2022-09-09T01:01:58;100132.03;;;15.68;100.00
21129;BME280;10722;51.910;8.352;2022-09-09T01:04:43;100139.78;;;15.73;100.00
21129;BME280;10722;51.910;8.352;2022-09-09T01:07:28;100138.06;;;15.72;100.00
21129;BME280;10722;51.910;8.352;2022-09-09T01:10:32;100134.66;;;15.65;100.00
21129;BME280;10722;51.910;8.352;2022-09-09T01:13:24;100136.31;;;15.73;100.00
21129;BME280;10722;51.910;8.352;2022-09-09T01:16:10;100133.72;;;15.73;100.00
21129;BME280;10722;51.910;8.352;2022-09-09T01:18:58;100131.97;;;15.73;100.00
21129;BME280;10722;51.910;8.352;2022-09-09T01:22:04;100131.88;;;15.79;100.00
21129;BME280;10722;51.910;8.352;2022-09-09T01:25:22;100134.53;;;15.78;100.00
21129;BME280;10722;51.910;8.352;2022-09-09T01:28:16;100134.53;;;15.78;100.00
21129;BME280;10722;51.910;8.352;2022-09-09T01:31:05;100131.09;;;15.74;100.00
21129;BME280;10722;51.910;8.352;2022-09-09T01:33:51;100131.97;;;15.73;100.00
21129;BME280;10722;51.910;8.352;2022-09-09T01:39:25;100130.38;;;15.60;100.00
21129;BME280;10722;51.910;8.352;2022-09-09T01:42:13;100133.94;;;15.51;100.00
21129;BME280;10722;51.910;8.352;2022-09-09T01:44:59;100141.88;;;15.42;100.00
21129;BME280;10722;51.910;8.352;2022-09-09T01:47:45;100137.50;;;15.44;100.00
21129;BME280;10722;51.910;8.352;2022-09-09T01:50:31;100128.81;;;15.45;100.00
21129;BME280;10722;51.910;8.352;2022-09-09T01:53:17;100132.31;;;15.44;100.00
21129;BME280;10722;51.910;8.352;2022-09-09T01:59:18;100128.88;;;15.40;100.00
21129;BME280;10722;51.910;8.352;2022-09-09T02:05:45;100122.09;;;15.24;100.00
21129;BME280;10722;51.910;8.352;2022-09-09T02:08:49;100132.53;;;15.22;100.00
21129;BME280;10722;51.910;8.352;2022-09-09T02:11:34;100121.28;;;15.19;100.00
21129;BME280;10722;51.910;8.352;2022-09-09T02:14:25;100116.03;;;15.23;100.00
21129;BME280;10722;51.910;8.352;2022-09-09T02:17:15;100126.44;;;15.27;100.00
21129;BME280;10722;51.910;8.352;2022-09-09T02:20:05;100121.28;;;15.20;100.00
21129;BME280;10722;51.910;8.352;2022-09-09T02:22:53;100120.31;;;15.28;100.00
21129;BME280;10722;51.910;8.352;2022-09-09T02:25:40;100116.94;;;15.21;100.00
21129;BME280;10722;51.910;8.352;2022-09-09T02:28:28;100122.03;;;15.29;100.00
21129;BME280;10722;51.910;8.352;2022-09-09T02:31:17;100127.22;;;15.33;100.00
21129;BME280;10722;51.910;8.352;2022-09-09T02:34:05;100121.91;;;15.39;100.00
21129;BME280;10722;51.910;8.352;2022-09-09T02:36:53;100130.59;;;15.43;100.00
21129;BME280;10722;51.910;8.352;2022-09-09T02:39:39;100125.25;;;15.52;100.00
21129;BME280;10722;51.910;8.352;2022-09-09T02:42:25;100129.66;;;15.49;100.00
21129;BME280;10722;51.910;8.352;2022-09-09T02:45:12;100132.25;;;15.45;100.00
21129;BME280;10722;51.910;8.352;2022-09-09T02:48:14;100131.50;;;15.39;100.00
21129;BME280;10722;51.910;8.352;2022-09-09T02:51:14;100132.25;;;15.45;100.00
21129;BME280;10722;51.910;8.352;2022-09-09T02:57:10;100125.41;;;15.37;100.00
21129;BME280;10722;51.910;8.352;2022-09-09T02:59:58;100133.19;;;15.41;100.00
21129;BME280;10722;51.910;8.352;2022-09-09T03:02:43;100144.47;;;15.43;100.00
21129;BME280;10722;51.910;8.352;2022-09-09T03:05:28;100140.19;;;15.38;100.00
21129;BME280;10722;51.910;8.352;2022-09-09T03:08:13;100136.81;;;15.30;100.00
21129;BME280;10722;51.910;8.352;2022-09-09T03:10:59;100141.13;;;15.31;100.00
21129;BME280;10722;51.910;8.352;2022-09-09T03:13:44;100143.75;;;15.31;100.00
21129;BME280;10722;51.910;8.352;2022-09-09T03:16:29;100141.13;;;15.32;100.00
21129;BME280;10722;51.910;8.352;2022-09-09T03:19:15;100143.78;;;15.28;100.00
21129;BME280;10722;51.910;8.352;2022-09-09T03:21:59;100143.81;;;15.24;100.00
21129;BME280;10722;51.910;8.352;2022-09-09T03:24:45;100140.34;;;15.24;100.00
21129;BME280;10722;51.910;8.352;2022-09-09T03:27:30;100133.34;;;15.28;100.00
21129;BME280;10722;51.910;8.352;2022-09-09T03:30:15;100136.88;;;15.23;100.00
21129;BME280;10722;51.910;8.352;2022-09-09T03:33:00;100139.53;;;15.19;100.00
21129;BME280;10722;51.910;8.352;2022-09-09T03:35:46;100149.06;;;15.20;100.00
21129;BME280;10722;51.910;8.352;2022-09-09T03:38:31;100135.19;;;15.19;100.00
21129;BME280;10722;51.910;8.352;2022-09-09T03:41:16;100131.69;;;15.22;100.00
21129;BME280;10722;51.910;8.352;2022-09-09T03:44:01;100140.28;;;15.32;100.00
21129;BME280;10722;51.910;8.352;2022-09-09T03:46:46;100129.81;;;15.35;100.00
21129;BME280;10722;51.910;8.352;2022-09-09T03:49:32;100126.31;;;15.36;100.00
21129;BME280;10722;51.910;8.352;2022-09-09T03:52:17;100130.63;;;15.38;100.00
21129;BME280;10722;51.910;8.352;2022-09-09T03:55:08;100129.66;;;15.45;100.00
21129;BME280;10722;51.910;8.352;2022-09-09T03:57:53;100130.63;;;15.38;100.00
21129;BME280;10722;51.910;8.352;2022-09-09T04:00:38;100127.16;;;15.36;100.00
21129;BME280;10722;51.910;8.352;2022-09-09T04:03:24;100129.84;;;15.29;100.00
21129;BME280;10722;51.910;8.352;2022-09-09T04:06:13;100145.56;;;15.24;100.00
21129;BME280;10722;51.910;8.352;2022-09-09T04:08:58;100152.59;;;15.14;100.00
21129;BME280;10722;51.910;8.352;2022-09-09T04:11:43;100150.91;;;15.10;100.00
21129;BME280;10722;51.910;8.352;2022-09-09T04:14:28;100142.25;;;15.08;100.00
21129;BME280;10722;51.910;8.352;2022-09-09T04:17:13;100141.44;;;15.01;100.00
21129;BME280;10722;51.910;8.352;2022-09-09T04:19:58;100138.00;;;15.01;100.00
21129;BME280;10722;51.910;8.352;2022-09-09T04:22:43;100138.78;;;15.06;100.00
21129;BME280;10722;51.910;8.352;2022-09-09T04:25:28;100135.28;;;15.10;100.00
21129;BME280;10722;51.910;8.352;2022-09-09T04:28:14;100134.50;;;15.04;100.00
21129;BME280;10722;51.910;8.352;2022-09-09T04:31:08;100127.53;;;15.04;100.00
21129;BME280;10722;51.910;8.352;2022-09-09T04:33:54;100130.97;;;15.06;100.00
21129;BME280;10722;51.910;8.352;2022-09-09T04:36:39;100125.75;;;15.09;100.00
21129;BME280;10722;51.910;8.352;2022-09-09T04:39:24;100129.19;;;15.11;100.00
21129;BME280;10722;51.910;8.352;2022-09-09T04:42:09;100136.09;;;15.14;100.00
21129;BME280;10722;51.910;8.352;2022-09-09T04:44:54;100131.84;;;15.05;100.00
21129;BME280;10722;51.910;8.352;2022-09-09T04:47:39;100139.66;;;15.07;100.00
21129;BME280;10722;51.910;8.352;2022-09-09T04:50:24;100145.72;;;15.09;100.00
21129;BME280;10722;51.910;8.352;2022-09-09T04:53:10;100139.75;;;14.99;100.00
21129;BME280;10722;51.910;8.352;2022-09-09T04:56:21;100148.34;;;15.06;100.00
21129;BME280;10722;51.910;8.352;2022-09-09T04:59:06;100134.47;;;15.07;100.00
21129;BME280;10722;51.910;8.352;2022-09-09T05:01:51;100150.13;;;15.04;100.00
21129;BME280;10722;51.910;8.352;2022-09-09T05:04:36;100141.41;;;15.05;100.00
21129;BME280;10722;51.910;8.352;2022-09-09T05:07:21;100145.75;;;15.06;100.00
21129;BME280;10722;51.910;8.352;2022-09-09T05:10:07;100145.78;;;15.02;100.00
21129;BME280;10722;51.910;8.352;2022-09-09T05:12:53;100148.38;;;15.04;100.00
21129;BME280;10722;51.910;8.352;2022-09-09T05:15:38;100153.59;;;15.04;100.00
21129;BME280;10722;51.910;8.352;2022-09-09T05:18:23;100154.38;;;15.12;100.00
21129;BME280;10722;51.910;8.352;2022-09-09T05:21:09;100149.16;;;15.11;100.00
21129;BME280;10722;51.910;8.352;2022-09-09T05:23:54;100156.16;;;15.07;100.00
21129;BME280;10722;51.910;8.352;2022-09-09T05:26:39;100150.03;;;15.13;100.00
21129;BME280;10722;51.910;8.352;2022-09-09T05:29:25;100150.03;;;15.13;100.00
21129;BME280;10722;51.910;8.352;2022-09-09T05:32:10;100151.81;;;15.06;100.00
21129;BME280;10722;51.910;8.352;2022-09-09T05:35:02;100149.19;;;15.06;100.00
21129;BME280;10722;51.910;8.352;2022-09-09T05:37:47;100155.31;;;15.05;100.00
21129;BME280;10722;51.910;8.352;2022-09-09T05:40:32;100150.06;;;15.08;100.00
21129;BME280;10722;51.910;8.352;2022-09-09T05:43:19;100143.06;;;15.12;100.00
21129;BME280;10722;51.910;8.352;2022-09-09T05:46:10;100154.28;;;15.21;100.00
21129;BME280;10722;51.910;8.352;2022-09-09T05:48:55;100154.25;;;15.24;100.00
21129;BME280;10722;51.910;8.352;2022-09-09T05:51:41;100153.38;;;15.22;100.00
21129;BME280;10722;51.910;8.352;2022-09-09T05:54:26;100147.16;;;15.36;100.00
21129;BME280;10722;51.910;8.352;2022-09-09T05:57:11;100149.69;;;15.42;100.00
21129;BME280;10722;51.910;8.352;2022-09-09T05:59:55;100152.22;;;15.48;100.00
21129;BME280;10722;51.910;8.352;2022-09-09T06:02:40;100150.56;;;15.44;100.00
21129;BME280;10722;51.910;8.352;2022-09-09T06:05:26;100148.81;;;15.46;100.00
21129;BME280;10722;51.910;8.352;2022-09-09T06:08:11;100163.59;;;15.44;100.00
21129;BME280;10722;51.910;8.352;2022-09-09T06:11:07;100156.50;;;15.54;100.00
21129;BME280;10722;51.910;8.352;2022-09-09T06:13:53;100152.78;;;15.76;100.00
21129;BME280;10722;51.910;8.352;2022-09-09T06:16:38;100156.75;;;16.06;100.00
21129;BME280;10722;51.910;8.352;2022-09-09T06:19:23;100146.19;;;16.14;100.00
21129;BME280;10722;51.910;8.352;2022-09-09T06:22:08;100147.81;;;16.23;100.00
21129;BME280;10722;51.910;8.352;2022-09-09T06:24:53;100139.69;;;16.41;100.00
21129;BME280;10722;51.910;8.352;2022-09-09T06:27:39;100136.91;;;16.52;100.00
21129;BME280;10722;51.910;8.352;2022-09-09T06:30:24;100132.63;;;16.48;100.00
21129;BME280;10722;51.910;8.352;2022-09-09T06:33:10;100138.75;;;16.45;100.00
21129;BME280;10722;51.910;8.352;2022-09-09T06:35:55;100130.03;;;16.46;100.00
21129;BME280;10722;51.910;8.352;2022-09-09T06:38:41;100141.53;;;16.36;100.00
21129;BME280;10722;51.910;8.352;2022-09-09T06:41:29;100146.75;;;16.34;100.00
21129;BME280;10722;51.910;8.352;2022-09-09T06:44:14;100143.38;;;16.28;100.00
21129;BME280;10722;51.910;8.352;2022-09-09T06:46:59;100157.38;;;16.22;100.00
21129;BME280;10722;51.910;8.352;2022-09-09T06:49:44;100154.75;;;16.24;100.00
21129;BME280;10722;51.910;8.352;2022-09-09T06:52:32;100148.63;;;16.26;100.00
21129;BME280;10722;51.910;8.352;2022-09-09T06:55:17;100153.84;;;16.26;100.00
21129;BME280;10722;51.910;8.352;2022-09-09T06:58:02;100160.75;;;16.29;100.00
21129;BME280;10722;51.910;8.352;2022-09-09T07:00:47;100158.16;;;16.30;100.00
21129;BME280;10722;51.910;8.352;2022-09-09T07:03:32;100162.44;;;16.33;100.00
21129;BME280;10722;51.910;8.352;2022-09-09T07:06:30;100163.41;;;16.26;100.00
21129;BME280;10722;51.910;8.352;2022-09-09T07:09:16;100166.78;;;16.34;100.00
21129;BME280;10722;51.910;8.352;2022-09-09T07:12:01;100172.09;;;16.28;100.00
21129;BME280;10722;51.910;8.352;2022-09-09T07:14:46;100170.19;;;16.39;100.00
21129;BME280;10722;51.910;8.352;2022-09-09T07:17:31;100161.41;;;16.43;100.00
21129;BME280;10722;51.910;8.352;2022-09-09T07:20:16;100173.50;;;16.50;100.00
21129;BME280;10722;51.910;8.352;2022-09-09T07:23:01;100164.81;;;16.48;100.00
21129;BME280;10722;51.910;8.352;2022-09-09T07:25:46;100158.69;;;16.51;100.00
21129;BME280;10722;51.910;8.352;2022-09-09T07:28:31;100157.69;;;16.59;100.00
21129;BME280;10722;51.910;8.352;2022-09-09T07:31:19;100162.91;;;16.58;100.00
21129;BME280;10722;51.910;8.352;2022-09-09T07:34:05;100174.94;;;16.70;100.00
21129;BME280;10722;51.910;8.352;2022-09-09T07:36:50;100169.72;;;16.67;100.00
21129;BME280;10722;51.910;8.352;2022-09-09T07:39:36;100164.50;;;16.70;100.00
21129;BME280;10722;51.910;8.352;2022-09-09T07:42:21;100160.91;;;16.74;100.00
21129;BME280;10722;51.910;8.352;2022-09-09T07:45:06;100161.75;;;16.77;100.00
21129;BME280;10722;51.910;8.352;2022-09-09T07:47:51;100157.31;;;16.84;100.00
21129;BME280;10722;51.910;8.352;2022-09-09T07:50:36;100158.13;;;16.88;100.00
21129;BME280;10722;51.910;8.352;2022-09-09T07:53:21;100163.16;;;16.97;100.00
21129;BME280;10722;51.910;8.352;2022-09-09T07:56:09;100161.31;;;17.03;100.00
21129;BME280;10722;51.910;8.352;2022-09-09T07:58:56;100153.25;;;17.16;100.00
21129;BME280;10722;51.910;8.352;2022-09-09T08:01:48;100153.91;;;17.27;100.00
21129;BME280;10722;51.910;8.352;2022-09-09T08:04:34;100145.16;;;17.30;100.00
21129;BME280;10722;51.910;8.352;2022-09-09T08:07:19;100145.66;;;17.48;100.00
21129;BME280;10722;51.910;8.352;2022-09-09T08:10:05;100145.13;;;17.73;98.82
21129;BME280;10722;51.910;8.352;2022-09-09T08:12:50;100139.25;;;18.05;97.13
21129;BME280;10722;51.910;8.352;2022-09-09T08:16:03;100127.47;;;18.25;93.01
21129;BME280;10722;51.910;8.352;2022-09-09T08:18:49;100129.81;;;18.35;92.64
21129;BME280;10722;51.910;8.352;2022-09-09T08:21:37;100100.66;;;18.49;88.93
21129;BME280;10722;51.910;8.352;2022-09-09T08:24:23;100093.97;;;18.72;86.91
21129;BME280;10722;51.910;8.352;2022-09-09T08:27:07;100131.88;;;18.21;88.91
21129;BME280;10722;51.910;8.352;2022-09-09T08:29:52;100132.78;;;18.22;88.87
21129;BME280;10722;51.910;8.352;2022-09-09T08:32:37;100143.38;;;18.15;89.60
21129;BME280;10722;51.910;8.352;2022-09-09T08:35:27;100142.09;;;17.95;89.22
21129;BME280;10722;51.910;8.352;2022-09-09T08:38:13;100163.19;;;18.27;89.77
21129;BME280;10722;51.910;8.352;2022-09-09T08:44:20;100130.56;;;18.41;86.06
21129;BME280;10722;51.910;8.352;2022-09-09T08:50:35;100157.00;;;18.30;87.77
21129;BME280;10722;51.910;8.352;2022-09-09T08:53:27;100161.94;;;18.05;88.28
21129;BME280;10722;51.910;8.352;2022-09-09T08:56:16;100175.69;;;17.73;89.14
21129;BME280;10722;51.910;8.352;2022-09-09T08:59:04;100178.34;;;17.69;89.57
21129;BME280;10722;51.910;8.352;2022-09-09T09:05:27;100174.75;;;17.74;88.67
21129;BME280;10722;51.910;8.352;2022-09-09T09:08:20;100187.91;;;17.70;88.87
21129;BME280;10722;51.910;8.352;2022-09-09T09:11:10;100177.59;;;17.64;89.20
21129;BME280;10722;51.910;8.352;2022-09-09T09:14:03;100193.19;;;17.69;91.63
21129;BME280;10722;51.910;8.352;2022-09-09T09:16:59;100187.38;;;17.98;91.61
21129;BME280;10722;51.910;8.352;2022-09-09T09:19:45;100150.81;;;18.32;87.26
21129;BME280;10722;51.910;8.352;2022-09-09T09:22:43;100151.28;;;18.50;86.63
21129;BME280;10722;51.910;8.352;2022-09-09T09:25:39;100142.56;;;18.87;85.06
21129;BME280;10722;51.910;8.352;2022-09-09T09:28:31;100126.88;;;18.84;82.40
21129;BME280;10722;51.910;8.352;2022-09-09T09:31:18;100095.25;;;18.57;80.01
21129;BME280;10722;51.910;8.352;2022-09-09T09:34:04;100103.34;;;18.48;79.57
21129;BME280;10722;51.910;8.352;2022-09-09T09:36:57;100140.28;;;18.71;82.00
21129;BME280;10722;51.910;8.352;2022-09-09T09:39:43;100110.94;;;18.58;80.59
21129;BME280;10722;51.910;8.352;2022-09-09T09:42:49;100093.22;;;18.67;78.55
21129;BME280;10722;51.910;8.352;2022-09-09T09:45:44;100115.69;;;18.43;79.39
21129;BME280;10722;51.910;8.352;2022-09-09T09:48:45;100126.56;;;18.26;80.47
21129;BME280;10722;51.910;8.352;2022-09-09T09:51:41;100150.13;;;18.26;81.28
21129;BME280;10722;51.910;8.352;2022-09-09T09:54:28;100121.16;;;18.32;80.91
21129;BME280;10722;51.910;8.352;2022-09-09T09:57:16;100119.16;;;18.43;79.89
21129;BME280;10722;51.910;8.352;2022-09-09T10:03:00;100142.88;;;18.37;80.31
21129;BME280;10722;51.910;8.352;2022-09-09T10:05:46;100131.84;;;18.60;80.01
21129;BME280;10722;51.910;8.352;2022-09-09T10:08:34;100101.41;;;18.90;78.15
21129;BME280;10722;51.910;8.352;2022-09-09T10:21:07;100114.47;;;18.56;76.28
21129;BME280;10722;51.910;8.352;2022-09-09T10:27:24;100150.28;;;18.91;77.95
21129;BME280;10722;51.910;8.352;2022-09-09T10:30:18;100146.56;;;19.00;77.38
21129;BME280;10722;51.910;8.352;2022-09-09T10:33:37;100150.84;;;19.04;78.15
21129;BME280;10722;51.910;8.352;2022-09-09T10:36:27;100158.28;;;19.19;79.71
21129;BME280;10722;51.910;8.352;2022-09-09T10:39:36;100131.56;;;19.38;77.77
21129;BME280;10722;51.910;8.352;2022-09-09T10:42:31;100150.97;;;19.31;78.54
21129;BME280;10722;51.910;8.352;2022-09-09T10:46:00;100136.28;;;19.56;77.99
21129;BME280;10722;51.910;8.352;2022-09-09T10:54:58;100092.78;;;19.18;75.40
21129;BME280;10722;51.910;8.352;2022-09-09T10:57:47;100117.28;;;19.17;75.81
21129;BME280;10722;51.910;8.352;2022-09-09T11:00:38;100113.56;;;19.55;74.99
21129;BME280;10722;51.910;8.352;2022-09-09T11:03:28;100068.84;;;19.60;73.36
21129;BME280;10722;51.910;8.352;2022-09-09T11:06:19;100110.00;;;19.58;73.75
21129;BME280;10722;51.910;8.352;2022-09-09T11:09:13;100063.00;;;19.50;72.40
21129;BME280;10722;51.910;8.352;2022-09-09T11:12:00;100086.19;;;19.64;73.04
21129;BME280;10722;51.910;8.352;2022-09-09T11:14:57;100078.47;;;19.59;73.11
21129;BME280;10722;51.910;8.352;2022-09-09T11:17:47;100104.13;;;19.49;74.22
21129;BME280;10722;51.910;8.352;2022-09-09T11:20:34;100119.69;;;19.56;75.04
21129;BME280;10722;51.910;8.352;2022-09-09T11:23:25;100110.19;;;19.52;74.68
21129;BME280;10722;51.910;8.352;2022-09-09T11:26:18;100092.88;;;19.46;74.00
21129;BME280;10722;51.910;8.352;2022-09-09T11:29:14;100133.47;;;19.62;76.14
21129;BME280;10722;51.910;8.352;2022-09-09T11:38:28;100057.25;;;20.23;70.35
21129;BME280;10722;51.910;8.352;2022-09-09T11:41:15;100018.69;;;20.24;68.08
21129;BME280;10722;51.910;8.352;2022-09-09T11:44:16;100040.97;;;20.12;67.98
21129;BME280;10722;51.910;8.352;2022-09-09T11:47:02;100016.56;;;20.35;67.04
21129;BME280;10722;51.910;8.352;2022-09-09T11:49:48;100020.47;;;20.75;66.05
21129;BME280;10722;51.910;8.352;2022-09-09T11:52:38;99965.50;;;20.69;62.75
21129;BME280;10722;51.910;8.352;2022-09-09T11:55:31;100001.66;;;21.11;63.98
21129;BME280;10722;51.910;8.352;2022-09-09T11:58:18;99981.53;;;21.10;62.64
21129;BME280;10722;51.910;8.352;2022-09-09T12:01:25;100039.63;;;21.27;64.47
21129;BME280;10722;51.910;8.352;2022-09-09T12:04:16;100034.44;;;21.93;63.71
21129;BME280;10722;51.910;8.352;2022-09-09T12:13:18;100000.72;;;22.85;60.84
21129;BME280;10722;51.910;8.352;2022-09-09T12:16:27;100027.50;;;22.34;62.29
21129;BME280;10722;51.910;8.352;2022-09-09T12:28:20;100060.84;;;21.69;64.39
21129;BME280;10722;51.910;8.352;2022-09-09T12:31:33;99972.72;;;22.22;60.39
21129;BME280;10722;51.910;8.352;2022-09-09T12:37:38;99970.69;;;21.85;59.89
21129;BME280;10722;51.910;8.352;2022-09-09T12:40:28;99983.69;;;21.45;60.54
21129;BME280;10722;51.910;8.352;2022-09-09T12:43:21;100006.38;;;21.48;61.19
21129;BME280;10722;51.910;8.352;2022-09-09T12:46:08;100003.81;;;21.23;61.18
21129;BME280;10722;51.910;8.352;2022-09-09T12:48:58;99992.25;;;21.27;60.57
21129;BME280;10722;51.910;8.352;2022-09-09T12:51:44;99991.34;;;21.28;59.84
21129;BME280;10722;51.910;8.352;2022-09-09T12:54:29;100026.19;;;20.86;60.88
21129;BME280;10722;51.910;8.352;2022-09-09T12:57:14;100035.72;;;20.65;61.86
21129;BME280;10722;51.910;8.352;2022-09-09T13:00:14;100072.03;;;20.52;63.41
21129;BME280;10722;51.910;8.352;2022-09-09T13:03:13;100142.31;;;19.89;67.38
21129;BME280;10722;51.910;8.352;2022-09-09T13:06:11;100184.50;;;19.19;73.72
21129;BME280;10722;51.910;8.352;2022-09-09T13:08:59;100174.88;;;18.87;76.08
21129;BME280;10722;51.910;8.352;2022-09-09T13:11:52;100167.34;;;19.08;78.08
21129;BME280;10722;51.910;8.352;2022-09-09T13:14:43;100155.16;;;19.07;77.00
21129;BME280;10722;51.910;8.352;2022-09-09T13:17:29;100112.09;;;19.15;74.87
21129;BME280;10722;51.910;8.352;2022-09-09T13:20:17;100119.97;;;19.45;75.58
21129;BME280;10722;51.910;8.352;2022-09-09T13:23:02;100055.28;;;19.75;72.17
21129;BME280;10722;51.910;8.352;2022-09-09T13:26:01;100028.53;;;19.90;69.71
21129;BME280;10722;51.910;8.352;2022-09-09T13:28:47;99985.53;;;20.46;66.56
21129;BME280;10722;51.910;8.352;2022-09-09T13:31:36;100003.53;;;20.84;66.37
21129;BME280;10722;51.910;8.352;2022-09-09T13:37:22;100028.41;;;21.22;65.10
21129;BME280;10722;51.910;8.352;2022-09-09T13:40:20;99992.63;;;21.41;63.74
21129;BME280;10722;51.910;8.352;2022-09-09T13:43:18;99969.44;;;21.27;62.76
21129;BME280;10722;51.910;8.352;2022-09-09T13:52:10;99966.81;;;21.27;61.77
21129;BME280;10722;51.910;8.352;2022-09-09T13:54:55;99972.66;;;21.12;61.60
21129;BME280;10722;51.910;8.352;2022-09-09T13:57:53;100020.28;;;21.28;64.07
21129;BME280;10722;51.910;8.352;2022-09-09T14:00:38;99937.31;;;21.43;60.47
21129;BME280;10722;51.910;8.352;2022-09-09T14:03:23;99949.91;;;21.11;60.71
21129;BME280;10722;51.910;8.352;2022-09-09T14:06:10;99967.81;;;21.01;61.74
21129;BME280;10722;51.910;8.352;2022-09-09T14:08:55;99981.84;;;21.00;62.50
21129;BME280;10722;51.910;8.352;2022-09-09T14:11:41;99972.38;;;20.96;61.65
21129;BME280;10722;51.910;8.352;2022-09-09T14:14:26;99971.00;;;20.86;61.15
21129;BME280;10722;51.910;8.352;2022-09-09T14:17:11;99976.44;;;20.81;61.15
21129;BME280;10722;51.910;8.352;2022-09-09T14:19:57;99980.66;;;20.86;60.92
21129;BME280;10722;51.910;8.352;2022-09-09T14:22:42;99973.06;;;20.78;61.01
21129;BME280;10722;51.910;8.352;2022-09-09T14:25:27;99988.25;;;20.70;61.13
21129;BME280;10722;51.910;8.352;2022-09-09T14:28:13;99989.16;;;20.69;60.94
21129;BME280;10722;51.910;8.352;2022-09-09T14:31:00;99986.91;;;20.58;61.47
21129;BME280;10722;51.910;8.352;2022-09-09T14:33:46;100014.19;;;20.55;62.58
21129;BME280;10722;51.910;8.352;2022-09-09T14:36:31;100016.84;;;20.54;62.60
21129;BME280;10722;51.910;8.352;2022-09-09T14:39:16;100051.28;;;20.45;64.34
21129;BME280;10722;51.910;8.352;2022-09-09T14:42:01;100046.31;;;20.35;64.82
21129;BME280;10722;51.910;8.352;2022-09-09T14:44:46;100040.31;;;20.32;65.07
21129;BME280;10722;51.910;8.352;2022-09-09T14:47:31;100043.63;;;20.38;65.25
21129;BME280;10722;51.910;8.352;2022-09-09T14:50:17;100070.53;;;20.45;66.38
21129;BME280;10722;51.910;8.352;2022-09-09T14:53:02;100035.75;;;20.38;65.39
21129;BME280;10722;51.910;8.352;2022-09-09T14:55:47;100053.81;;;20.48;66.16
21129;BME280;10722;51.910;8.352;2022-09-09T14:58:32;100027.19;;;20.58;65.49
21129;BME280;10722;51.910;8.352;2022-09-09T15:01:19;100022.91;;;20.56;65.81
21129;BME280;10722;51.910;8.352;2022-09-09T15:04:05;100040.38;;;20.57;66.70
21129;BME280;10722;51.910;8.352;2022-09-09T15:06:51;100037.81;;;20.29;66.54
21129;BME280;10722;51.910;8.352;2022-09-09T15:09:35;100060.72;;;20.24;67.63
21129;BME280;10722;51.910;8.352;2022-09-09T15:12:21;100031.94;;;20.21;66.33
21129;BME280;10722;51.910;8.352;2022-09-09T15:15:06;100042.31;;;20.25;66.49
21129;BME280;10722;51.910;8.352;2022-09-09T15:17:51;100061.44;;;20.29;67.29
21129;BME280;10722;51.910;8.352;2022-09-09T15:20:36;100068.41;;;20.30;67.94
21129;BME280;10722;51.910;8.352;2022-09-09T15:23:24;100066.38;;;20.38;68.33
21129;BME280;10722;51.910;8.352;2022-09-09T15:26:10;100069.41;;;20.26;68.04
21129;BME280;10722;51.910;8.352;2022-09-09T15:28:56;100078.50;;;20.15;68.93
21129;BME280;10722;51.910;8.352;2022-09-09T15:31:41;100070.50;;;19.92;69.08
21129;BME280;10722;51.910;8.352;2022-09-09T15:34:26;100086.25;;;19.92;70.34
21129;BME280;10722;51.910;8.352;2022-09-09T15:37:11;100092.41;;;19.91;70.95
21129;BME280;10722;51.910;8.352;2022-09-09T15:39:56;100081.63;;;20.00;71.26
21129;BME280;10722;51.910;8.352;2022-09-09T15:42:41;100095.16;;;19.88;71.67
21129;BME280;10722;51.910;8.352;2022-09-09T15:45:27;100065.91;;;19.99;69.84
21129;BME280;10722;51.910;8.352;2022-09-09T15:48:12;100105.38;;;19.67;73.25
21129;BME280;10722;51.910;8.352;2022-09-09T15:51:03;100088.84;;;19.62;72.64
21129;BME280;10722;51.910;8.352;2022-09-09T15:54:14;100082.56;;;19.69;72.34
21129;BME280;10722;51.910;8.352;2022-09-09T15:57:01;100081.25;;;19.53;72.58
21129;BME280;10722;51.910;8.352;2022-09-09T15:59:47;100065.13;;;19.68;71.62
21129;BME280;10722;51.910;8.352;2022-09-09T16:02:32;100066.84;;;19.96;70.83
21129;BME280;10722;51.910;8.352;2022-09-09T16:05:17;100082.88;;;19.88;71.30
21129;BME280;10722;51.910;8.352;2022-09-09T16:08:02;100092.53;;;19.88;72.26